Time;durP1;ratioP1;P1;durP2;ratioP2;P2;SDS_P1;SDS_P2;PMS_P1;PMS_P2;Temp;Humidity;BMP_temperature;BMP_pressure;BME280_temperature;BME280_humidity;BME280_pressure;Samples;Min_cycle;Max_cycle;Signal;HPM_P1;HPM_P2
2022/05/21 00:00:17;;;;;;;18.90;10.15;;;11.20;99.90;;;;;;6229715;22;20111;-59
2022/05/21 00:02:42;;;;;;;18.58;11.45;;;11.10;99.90;;;;;;6231149;22;20019;-58
2022/05/21 00:05:08;;;;;;;17.38;11.05;;;11.10;99.90;;;;;;6224996;22;20503;-59
2022/05/21 00:07:34;;;;;;;19.58;11.60;;;11.00;99.90;;;;;;6234243;22;20004;-58
2022/05/21 00:09:59;;;;;;;21.50;11.90;;;10.90;99.90;;;;;;6231249;22;20480;-59
2022/05/21 00:12:25;;;;;;;15.98;11.48;;;11.00;99.90;;;;;;6229415;22;20008;-58
2022/05/21 00:14:52;;;;;;;18.40;11.77;;;11.70;99.90;;;;;;6226992;22;20024;-59
2022/05/21 00:17:18;;;;;;;21.55;11.77;;;11.00;99.90;;;;;;6227673;22;20004;-59
2022/05/21 00:19:44;;;;;;;19.60;11.65;;;11.10;99.90;;;;;;6229434;22;20027;-59
2022/05/21 00:22:09;;;;;;;16.60;11.68;;;11.00;99.90;;;;;;6230541;22;20011;-59
2022/05/21 00:24:35;;;;;;;18.08;11.60;;;11.40;99.90;;;;;;6227041;22;20379;-58
2022/05/21 00:27:00;;;;;;;17.73;11.27;;;11.00;99.90;;;;;;6229334;22;20511;-59
2022/05/21 00:29:28;;;;;;;19.27;11.52;;;11.00;99.90;;;;;;6224670;22;20107;-59
2022/05/21 00:31:54;;;;;;;20.45;11.23;;;11.00;99.90;;;;;;6228802;22;20004;-59
2022/05/21 00:34:19;;;;;;;20.23;11.70;;;11.00;99.90;;;;;;6226261;22;20087;-59
2022/05/21 00:36:45;;;;;;;17.42;11.95;;;11.00;99.90;;;;;;6229994;22;20008;-59
2022/05/21 00:39:10;;;;;;;18.88;12.43;;;11.00;99.90;;;;;;6225135;22;20193;-59
2022/05/21 00:41:36;;;;;;;21.45;11.18;;;10.90;99.90;;;;;;6227413;23;20433;-59
2022/05/21 00:44:03;;;;;;;18.58;11.60;;;11.00;99.90;;;;;;6227177;22;20011;-59
2022/05/21 00:46:33;;;;;;;16.95;11.20;;;11.00;99.90;;;;;;6229232;22;20559;-59
2022/05/21 00:49:04;;;;;;;14.95;10.85;;;11.00;99.90;;;;;;6225467;23;20090;-59
2022/05/21 00:51:38;;;;;;;18.42;11.20;;;11.00;99.90;;;;;;6226572;23;20480;-59
2022/05/21 00:54:04;;;;;;;20.08;11.15;;;11.00;99.90;;;;;;6225555;23;20039;-59
2022/05/21 00:56:31;;;;;;;14.48;10.07;;;11.00;99.90;;;;;;6229398;22;20117;-59
2022/05/21 01:01:47;;;;;;;21.42;11.27;;;11.00;99.90;;;;;;6229393;22;20124;-58
2022/05/21 01:04:12;;;;;;;19.55;10.32;;;10.90;99.90;;;;;;6224101;23;20011;-59
2022/05/21 01:06:38;;;;;;;18.48;10.40;;;11.00;99.90;;;;;;6232880;22;20079;-59
2022/05/21 01:09:04;;;;;;;23.60;9.98;;;10.90;99.90;;;;;;6231675;22;20099;-59
2022/05/21 01:11:30;;;;;;;16.95;10.02;;;10.80;99.90;;;;;;6230424;22;20367;-59
2022/05/21 01:13:55;;;;;;;12.18;9.65;;;10.90;99.90;;;;;;6231861;22;20024;-59
2022/05/21 01:16:21;;;;;;;17.52;10.73;;;10.90;99.90;;;;;;6230603;22;20008;-59
2022/05/21 01:18:46;;;;;;;18.55;11.48;;;10.80;99.90;;;;;;6231394;22;20047;-59
2022/05/21 01:21:12;;;;;;;17.50;9.63;;;10.80;99.90;;;;;;6229388;22;20059;-59
2022/05/21 01:23:37;;;;;;;16.33;9.65;;;10.80;99.90;;;;;;6231873;22;20459;-59
2022/05/21 01:26:05;;;;;;;18.40;10.15;;;10.80;99.90;;;;;;6228431;22;20381;-58
2022/05/21 01:28:31;;;;;;;18.88;10.60;;;10.90;99.90;;;;;;6229434;23;20412;-59
2022/05/21 01:30:58;;;;;;;16.02;9.65;;;10.90;99.90;;;;;;6230051;22;20015;-59
2022/05/21 01:33:26;;;;;;;15.85;9.50;;;10.90;99.90;;;;;;6231342;22;20004;-59
2022/05/21 01:35:52;;;;;;;13.80;8.50;;;11.00;99.90;;;;;;6230012;22;20011;-59
2022/05/21 01:38:19;;;;;;;16.08;10.02;;;10.90;99.90;;;;;;6228681;23;20428;-59
2022/05/21 01:40:44;;;;;;;17.75;9.02;;;10.90;99.90;;;;;;6228747;22;20088;-59
2022/05/21 01:45:54;;;;;;;15.13;8.38;;;11.00;99.90;;;;;;6229389;23;20015;-59
2022/05/21 01:48:21;;;;;;;18.33;8.65;;;10.90;99.90;;;;;;6230995;22;20008;-59
2022/05/21 01:50:47;;;;;;;16.50;8.10;;;10.90;99.90;;;;;;6229024;22;20009;-58
2022/05/21 01:53:12;;;;;;;19.00;8.10;;;10.90;99.90;;;;;;6230157;22;20015;-58
2022/05/21 01:55:38;;;;;;;19.17;9.05;;;11.00;99.90;;;;;;6229240;22;20004;-58
2022/05/21 01:58:04;;;;;;;15.52;8.55;;;11.00;99.90;;;;;;6227881;23;20015;-58
2022/05/21 02:00:30;;;;;;;14.60;8.52;;;10.90;99.90;;;;;;6229093;22;20333;-59
2022/05/21 02:02:55;;;;;;;21.75;8.90;;;10.80;99.90;;;;;;6226073;23;20137;-59
2022/05/21 02:05:21;;;;;;;17.42;8.85;;;10.80;99.90;;;;;;6230616;22;20011;-59
2022/05/21 02:07:46;;;;;;;20.33;8.95;;;10.90;99.90;;;;;;6233263;22;20008;-58
2022/05/21 02:10:12;;;;;;;18.85;9.15;;;10.90;99.90;;;;;;6228479;22;20008;-59
2022/05/21 02:12:39;;;;;;;20.52;9.15;;;10.90;99.90;;;;;;6231311;23;20425;-59
2022/05/21 02:15:05;;;;;;;17.65;9.02;;;10.80;99.90;;;;;;6230638;22;20381;-58
2022/05/21 02:17:30;;;;;;;17.45;8.80;;;10.80;99.90;;;;;;6233404;22;20466;-59
2022/05/21 02:19:56;;;;;;;14.90;8.00;;;10.70;99.90;;;;;;6231162;22;20057;-59
2022/05/21 02:22:22;;;;;;;17.88;8.93;;;10.80;99.90;;;;;;6233173;22;20102;-59
2022/05/21 02:24:47;;;;;;;23.10;8.50;;;10.80;99.90;;;;;;6230289;22;19999;-59
2022/05/21 02:27:13;;;;;;;16.77;8.13;;;11.00;99.90;;;;;;6232810;22;20209;-59
2022/05/21 02:29:39;;;;;;;18.17;7.85;;;10.90;99.90;;;;;;6228345;22;20325;-58
2022/05/21 02:32:05;;;;;;;15.32;7.00;;;10.90;99.90;;;;;;6233193;22;20008;-58
2022/05/21 02:34:31;;;;;;;17.58;7.13;;;10.90;99.90;;;;;;6229862;22;20426;-59
2022/05/21 02:39:41;;;;;;;17.10;6.20;;;11.10;99.90;;;;;;6227530;23;20336;-59
2022/05/21 02:42:43;;;;;;;20.35;6.97;;;11.20;99.90;;;;;;6232738;22;19996;-59
2022/05/21 02:44:53;;;;;;;20.42;6.03;;;11.40;99.90;;;;;;6229080;23;20004;-59
2022/05/21 02:47:18;;;;;;;12.00;6.20;;;11.50;99.90;;;;;;6233271;22;20058;-59
2022/05/21 02:49:44;;;;;;;13.07;5.15;;;11.60;99.90;;;;;;6229362;22;20004;-58
2022/05/21 02:52:09;;;;;;;13.52;5.30;;;11.80;99.90;;;;;;6232867;22;20359;-59
2022/05/21 02:54:35;;;;;;;13.68;4.97;;;11.80;99.90;;;;;;6229452;22;20336;-59
2022/05/21 02:57:00;;;;;;;13.52;5.57;;;11.90;99.90;;;;;;6230752;22;20019;-59
2022/05/21 02:59:28;;;;;;;10.65;5.03;;;11.80;99.90;;;;;;6229431;22;20019;-58
2022/05/21 03:01:53;;;;;;;15.32;5.80;;;11.90;99.90;;;;;;6230329;23;20020;-59
2022/05/21 03:04:19;;;;;;;12.00;4.68;;;11.90;99.90;;;;;;6230876;22;20780;-59
2022/05/21 03:06:44;;;;;;;14.30;4.30;;;12.00;99.90;;;;;;6232777;22;20023;-59
2022/05/21 03:11:54;;;;;;;11.73;3.97;;;12.00;99.90;;;;;;6232318;23;20062;-59
2022/05/21 03:14:20;;;;;;;10.30;4.25;;;11.60;99.90;;;;;;6229907;22;20228;-59
2022/05/21 03:16:45;;;;;;;8.40;4.15;;;12.10;99.90;;;;;;6233116;22;20008;-59
2022/05/21 03:19:11;;;;;;;12.70;4.57;;;12.10;99.90;;;;;;6232321;22;20007;-59
2022/05/21 03:21:36;;;;;;;10.63;4.70;;;12.10;99.90;;;;;;6230782;23;20054;-59
2022/05/21 03:24:02;;;;;;;11.73;4.30;;;12.20;99.90;;;;;;6231963;22;20004;-59
2022/05/21 03:26:29;;;;;;;13.25;3.90;;;12.20;99.90;;;;;;6230961;22;20000;-58
2022/05/21 03:28:55;;;;;;;9.27;3.47;;;12.20;99.90;;;;;;6231640;22;20004;-59
2022/05/21 03:31:20;;;;;;;19.27;4.53;;;12.20;99.90;;;;;;6228290;22;20015;-58
2022/05/21 03:33:45;;;;;;;13.77;4.22;;;12.20;99.90;;;;;;6231794;22;20015;-58
2022/05/21 03:36:11;;;;;;;12.60;3.55;;;12.20;99.90;;;;;;6228864;22;20516;-59
2022/05/21 03:38:37;;;;;;;8.30;3.55;;;13.30;99.90;;;;;;6232442;22;20012;-59
2022/05/21 03:41:02;;;;;;;10.05;3.45;;;12.20;99.90;;;;;;6229465;22;20461;-59
2022/05/21 03:43:28;;;;;;;14.35;3.70;;;12.30;99.90;;;;;;6231349;22;20000;-59
2022/05/21 03:45:54;;;;;;;11.52;3.80;;;12.30;99.90;;;;;;6229203;22;20440;-59
2022/05/21 03:48:19;;;;;;;13.10;3.45;;;12.20;99.90;;;;;;6232185;22;20467;-59
2022/05/21 03:50:45;;;;;;;14.30;4.07;;;12.30;99.90;;;;;;6229200;22;20046;-58
2022/05/21 03:53:13;;;;;;;8.23;3.17;;;12.30;99.90;;;;;;6231318;22;20318;-58
2022/05/21 03:55:39;;;;;;;11.75;3.50;;;12.30;99.90;;;;;;6229444;22;20436;-58
2022/05/21 03:58:04;;;;;;;13.68;3.80;;;12.20;99.90;;;;;;6231655;22;20012;-58
2022/05/21 04:00:30;;;;;;;9.30;3.53;;;12.30;99.90;;;;;;6229505;22;20015;-59
2022/05/21 04:02:57;;;;;;;11.60;3.78;;;12.30;99.90;;;;;;6230272;23;20012;-58
2022/05/21 04:05:22;;;;;;;14.25;4.00;;;12.30;99.90;;;;;;6231322;22;20015;-58
2022/05/21 04:07:48;;;;;;;7.50;3.80;;;12.30;99.90;;;;;;6233225;22;20008;-58
2022/05/21 04:10:14;;;;;;;8.88;3.50;;;12.30;99.90;;;;;;6230202;22;20004;-59
2022/05/21 04:12:41;;;;;;;10.45;3.80;;;12.30;99.90;;;;;;6233000;22;20004;-59
2022/05/21 04:15:07;;;;;;;11.43;4.07;;;12.30;99.90;;;;;;6230719;22;20421;-58
2022/05/21 04:17:34;;;;;;;8.45;3.97;;;12.40;99.90;;;;;;6233794;22;20156;-59
2022/05/21 04:19:59;;;;;;;10.80;4.15;;;12.40;99.90;;;;;;6231231;22;19996;-59
2022/05/21 04:22:25;;;;;;;11.02;3.83;;;12.30;99.90;;;;;;6232633;22;20368;-58
2022/05/21 04:24:50;;;;;;;12.00;4.25;;;12.40;99.90;;;;;;6230687;22;20011;-59
2022/05/21 04:27:16;;;;;;;8.77;4.10;;;12.40;99.90;;;;;;6233303;22;20004;-58
2022/05/21 04:29:41;;;;;;;11.93;4.28;;;12.40;99.90;;;;;;6231388;22;20004;-59
2022/05/21 04:32:07;;;;;;;15.05;3.63;;;12.40;99.90;;;;;;6231177;22;20012;-58
2022/05/21 04:34:32;;;;;;;17.30;4.55;;;12.40;99.90;;;;;;6229323;22;20035;-59
2022/05/21 04:36:58;;;;;;;11.50;4.32;;;12.40;99.90;;;;;;6232020;22;20011;-59
2022/05/21 04:39:23;;;;;;;12.35;4.78;;;12.40;99.90;;;;;;6229377;22;20000;-59
2022/05/21 04:41:49;;;;;;;17.23;4.82;;;12.50;99.90;;;;;;6232911;22;20007;-62
2022/05/21 04:44:15;;;;;;;14.20;5.13;;;12.50;99.90;;;;;;6230020;22;20221;-59
2022/05/21 04:46:40;;;;;;;13.45;4.63;;;12.50;99.90;;;;;;6232825;22;20019;-58
2022/05/21 04:49:06;;;;;;;12.65;5.55;;;12.50;99.90;;;;;;6232871;22;20313;-59
2022/05/21 04:51:34;;;;;;;12.88;5.13;;;12.60;99.90;;;;;;6230012;22;20500;-58
2022/05/21 04:53:59;;;;;;;16.80;5.72;;;12.60;99.90;;;;;;6232702;22;20044;-59
2022/05/21 04:56:25;;;;;;;14.55;5.55;;;12.60;99.90;;;;;;6230228;22;20035;-58
2022/05/21 04:58:50;;;;;;;16.65;5.97;;;12.60;99.90;;;;;;6232442;22;20012;-59
2022/05/21 05:01:16;;;;;;;15.70;5.75;;;12.60;99.90;;;;;;6229923;22;20207;-59
2022/05/21 05:03:41;;;;;;;17.10;5.47;;;12.60;99.90;;;;;;6233793;22;20004;-59
2022/05/21 05:06:08;;;;;;;13.55;5.07;;;12.60;99.90;;;;;;6228242;22;20004;-58
2022/05/21 05:08:34;;;;;;;11.45;5.80;;;12.70;99.90;;;;;;6232445;22;20345;-58
2022/05/21 05:10:59;;;;;;;13.63;5.88;;;12.80;99.90;;;;;;6230340;22;20004;-59
2022/05/21 05:13:25;;;;;;;16.75;6.10;;;12.90;99.90;;;;;;6233954;22;20014;-58
2022/05/21 05:15:50;;;;;;;15.02;5.95;;;12.90;99.90;;;;;;6230099;22;20016;-58
2022/05/21 05:18:17;;;;;;;18.40;5.40;;;13.10;99.90;;;;;;6232144;22;20004;-58
2022/05/21 05:20:43;;;;;;;14.50;5.82;;;13.10;99.90;;;;;;6228120;22;20007;-59
2022/05/21 05:23:09;;;;;;;14.40;6.20;;;13.20;99.90;;;;;;6231358;22;20586;-59
2022/05/21 05:25:34;;;;;;;13.98;5.32;;;13.30;99.90;;;;;;6229225;22;20349;-58
2022/05/21 05:28:00;;;;;;;15.27;5.28;;;13.20;99.90;;;;;;6231533;22;20027;-59
2022/05/21 05:30:26;;;;;;;11.88;4.43;;;13.30;99.90;;;;;;6228525;23;20008;-59
2022/05/21 05:32:51;;;;;;;17.25;5.35;;;13.40;99.90;;;;;;6229664;22;20004;-59
2022/05/21 05:35:17;;;;;;;10.98;4.93;;;13.40;99.90;;;;;;6227617;23;20344;-59
2022/05/21 05:37:42;;;;;;;9.75;4.50;;;13.40;99.90;;;;;;6232107;22;20008;-59
2022/05/21 05:40:10;;;;;;;16.88;5.25;;;13.40;99.90;;;;;;6229089;22;20007;-58
2022/05/21 05:42:36;;;;;;;13.38;5.00;;;13.40;99.90;;;;;;6230209;22;20054;-59
2022/05/21 05:45:02;;;;;;;13.23;5.65;;;13.20;99.90;;;;;;6227477;22;20008;-60
2022/05/21 05:47:28;;;;;;;12.02;5.07;;;13.10;99.90;;;;;;6232185;22;20004;-58
2022/05/21 05:49:54;;;;;;;14.55;5.38;;;13.10;99.90;;;;;;6230443;22;20012;-59
2022/05/21 05:52:19;;;;;;;17.20;5.85;;;13.10;99.90;;;;;;6234055;22;20492;-58
2022/05/21 05:54:45;;;;;;;14.45;5.57;;;12.90;99.90;;;;;;6230545;22;20087;-59
2022/05/21 05:57:11;;;;;;;15.60;5.38;;;12.90;99.90;;;;;;6234947;22;20347;-59
2022/05/21 05:59:49;;;;;;;15.20;5.97;;;12.80;99.90;;;;;;6233692;22;20339;-58
2022/05/21 06:05:03;;;;;;;13.55;5.97;;;12.90;99.90;;;;;;6231746;23;20515;-59
2022/05/21 06:07:29;;;;;;;19.08;6.72;;;13.00;99.90;;;;;;6233744;22;20023;-58
2022/05/21 06:10:01;;;;;;;20.10;7.32;;;13.10;99.90;;;;;;6232527;22;20012;-59
2022/05/21 06:12:27;;;;;;;13.57;6.75;;;13.10;99.90;;;;;;6233229;22;20079;-58
2022/05/21 06:14:53;;;;;;;18.70;6.30;;;13.20;99.90;;;;;;6231133;22;20703;-60
2022/05/21 06:17:19;;;;;;;15.90;6.35;;;13.30;99.90;;;;;;6234059;22;20312;-58
2022/05/21 06:19:44;;;;;;;14.80;7.10;;;13.30;99.90;;;;;;6231193;22;20402;-59
2022/05/21 06:22:10;;;;;;;18.75;7.03;;;13.40;99.90;;;;;;6235019;22;20008;-59
2022/05/21 06:24:36;;;;;;;17.90;7.03;;;13.50;99.90;;;;;;6230317;22;20004;-59
2022/05/21 06:27:02;;;;;;;13.95;6.10;;;13.60;99.90;;;;;;6172723;22;20000;-58
2022/05/21 06:29:28;;;;;;;13.88;6.80;;;13.60;99.90;;;;;;6230483;22;20079;-59
2022/05/21 06:31:53;;;;;;;13.88;6.13;;;13.60;99.90;;;;;;6232907;22;20055;-59
2022/05/21 06:34:19;;;;;;;15.23;7.20;;;13.80;99.90;;;;;;6230982;23;20081;-59
2022/05/21 06:36:44;;;;;;;17.70;7.47;;;14.00;99.90;;;;;;6235368;22;20524;-59
2022/05/21 06:39:10;;;;;;;20.58;7.13;;;13.80;99.90;;;;;;6233843;22;20057;-59
2022/05/21 06:41:35;;;;;;;19.60;6.63;;;13.90;99.90;;;;;;6229591;22;20459;-58
2022/05/21 06:44:01;;;;;;;18.52;6.88;;;14.00;99.90;;;;;;6232845;22;20000;-61
2022/05/21 06:46:26;;;;;;;18.40;7.32;;;14.10;99.90;;;;;;6232157;22;20029;-61
2022/05/21 06:48:52;;;;;;;14.88;7.28;;;14.30;99.90;;;;;;6232060;22;20083;-60
2022/05/21 06:51:17;;;;;;;22.52;7.90;;;14.50;99.90;;;;;;6233787;22;20012;-60
2022/05/21 06:53:43;;;;;;;16.05;7.38;;;14.40;99.90;;;;;;6227497;22;20015;-60
2022/05/21 06:56:10;;;;;;;14.13;7.32;;;14.70;99.90;;;;;;6233517;22;20015;-61
2022/05/21 06:58:36;;;;;;;21.38;7.85;;;14.70;99.90;;;;;;6228976;22;20008;-60
2022/05/21 07:01:01;;;;;;;18.05;7.25;;;14.70;99.90;;;;;;6230907;22;20004;-60
2022/05/21 07:03:27;;;;;;;22.52;7.50;;;14.90;99.90;;;;;;6230909;22;20227;-60
2022/05/21 07:08:36;;;;;;;14.02;6.88;;;14.80;99.90;;;;;;6231996;23;20070;-60
2022/05/21 07:11:02;;;;;;;20.08;7.22;;;14.90;99.90;;;;;;6233503;22;20012;-60
2022/05/21 07:13:30;;;;;;;19.55;7.20;;;15.00;99.90;;;;;;6232247;22;20436;-60
2022/05/21 07:15:56;;;;;;;15.95;7.50;;;15.10;99.90;;;;;;6232820;22;20110;-60
2022/05/21 07:18:22;;;;;;;21.25;7.43;;;15.10;99.90;;;;;;6231889;22;20448;-60
2022/05/21 07:20:48;;;;;;;18.60;8.23;;;14.90;99.90;;;;;;6229668;22;20065;-60
2022/05/21 07:23:13;;;;;;;16.67;7.35;;;14.80;99.90;;;;;;6230293;22;20004;-60
2022/05/21 07:25:40;;;;;;;17.58;7.07;;;14.90;99.90;;;;;;6231975;22;20259;-60
2022/05/21 07:28:07;;;;;;;18.85;7.00;;;15.10;99.90;;;;;;6231239;22;20077;-60
2022/05/21 07:30:33;;;;;;;24.08;8.23;;;15.50;99.90;;;;;;6232643;22;20062;-60
2022/05/21 07:32:58;;;;;;;16.02;7.47;;;15.50;99.60;;;;;;6229691;22;20012;-60
2022/05/21 07:35:25;;;;;;;18.02;8.13;;;15.40;99.90;;;;;;6232734;22;20004;-60
2022/05/21 07:37:51;;;;;;;20.63;7.70;;;15.50;99.80;;;;;;6230481;22;20032;-60
2022/05/21 07:40:17;;;;;;;23.17;7.95;;;15.80;99.70;;;;;;6232494;22;20425;-60
2022/05/21 07:42:43;;;;;;;18.40;7.32;;;15.70;99.10;;;;;;6230781;22;20494;-60
2022/05/21 07:45:10;;;;;;;16.83;7.07;;;15.90;99.20;;;;;;6232564;22;20015;-59
2022/05/21 07:47:35;;;;;;;16.55;6.85;;;15.60;99.00;;;;;;6230547;22;20000;-60
2022/05/21 07:50:01;;;;;;;23.60;7.25;;;15.40;99.40;;;;;;6232416;22;20026;-60
2022/05/21 07:52:27;;;;;;;23.80;6.82;;;15.30;99.80;;;;;;6227904;22;20088;-60
2022/05/21 07:54:53;;;;;;;16.73;6.85;;;15.30;99.90;;;;;;6232798;22;20001;-60
2022/05/21 07:57:19;;;;;;;14.23;6.43;;;15.30;99.70;;;;;;6231437;22;20170;-60
2022/05/21 07:59:44;;;;;;;22.25;6.57;;;15.30;99.90;;;;;;6230313;22;20012;-60
2022/05/21 08:02:12;;;;;;;18.20;7.32;;;15.10;99.90;;;;;;6231941;22;20231;-60
2022/05/21 08:04:38;;;;;;;24.10;7.05;;;15.30;99.70;;;;;;6225635;22;20004;-59
2022/05/21 08:07:03;;;;;;;16.58;7.28;;;15.30;99.80;;;;;;6234050;22;20016;-59
2022/05/21 08:09:29;;;;;;;15.75;6.75;;;15.50;99.20;;;;;;6230951;22;20004;-60
2022/05/21 08:11:54;;;;;;;15.70;6.80;;;15.60;99.00;;;;;;6233456;22;20007;-60
2022/05/21 08:14:20;;;;;;;21.25;6.68;;;15.80;99.10;;;;;;6230318;22;20032;-60
2022/05/21 08:16:45;;;;;;;21.48;7.03;;;15.80;98.30;;;;;;6233427;22;20019;-59
2022/05/21 08:19:12;;;;;;;24.73;7.55;;;15.60;98.10;;;;;;6231720;22;20129;-60
2022/05/21 08:21:38;;;;;;;24.08;7.50;;;15.70;98.30;;;;;;6232370;22;20000;-60
2022/05/21 08:26:57;;;;;;;16.53;6.73;;;15.60;98.70;;;;;;6233510;23;20015;-59
2022/05/21 08:29:36;;;;;;;18.83;7.28;;;15.80;98.50;;;;;;6230630;22;20231;-60
2022/05/21 08:32:02;;;;;;;21.40;7.13;;;16.30;98.00;;;;;;6230506;22;20344;-59
2022/05/21 08:34:28;;;;;;;17.73;6.50;;;16.50;98.10;;;;;;6230065;22;20008;-60
2022/05/21 08:36:54;;;;;;;18.33;6.63;;;16.40;96.90;;;;;;6233197;22;20110;-60
2022/05/21 08:39:19;;;;;;;20.08;7.22;;;16.50;97.30;;;;;;6229258;22;20034;-60
2022/05/21 08:41:51;;;;;;;19.08;6.80;;;16.30;97.30;;;;;;6232779;22;20336;-60
2022/05/21 08:44:44;;;;;;;12.15;6.05;;;17.20;96.00;;;;;;6229010;22;20032;-59
2022/05/21 08:47:18;;;;;;;18.48;5.72;;;17.30;95.30;;;;;;6232607;22;20008;-60
2022/05/21 08:50:02;;;;;;;20.23;6.25;;;17.40;95.60;;;;;;6229217;22;20357;-60
2022/05/21 08:52:37;;;;;;;24.58;6.85;;;17.40;95.80;;;;;;6232571;22;20015;-60
2022/05/21 08:55:04;;;;;;;14.10;5.40;;;18.40;95.40;;;;;;6231071;22;20397;-60
2022/05/21 08:57:44;;;;;;;17.17;5.70;;;19.10;94.40;;;;;;6230024;23;20039;-59
2022/05/21 09:00:13;;;;;;;17.98;5.85;;;18.80;91.50;;;;;;6228172;22;20027;-59
2022/05/21 09:02:38;;;;;;;12.48;5.32;;;18.70;93.10;;;;;;6229605;22;20549;-59
2022/05/21 09:05:09;;;;;;;13.30;4.72;;;18.90;92.00;;;;;;6228119;23;19996;-59
2022/05/21 09:08:19;;;;;;;13.63;5.95;;;19.20;93.10;;;;;;6231655;22;20083;-59
2022/05/21 09:11:01;;;;;;;13.20;5.00;;;19.20;92.20;;;;;;6230977;22;20000;-60
2022/05/21 09:13:48;;;;;;;16.48;5.18;;;19.50;91.50;;;;;;6232115;22;20329;-60
2022/05/21 09:18:59;;;;;;;14.13;4.82;;;19.60;91.90;;;;;;6233026;23;20047;-59
2022/05/21 09:21:26;;;;;;;13.95;5.05;;;19.00;91.90;;;;;;6228141;23;20040;-60
2022/05/21 09:23:57;;;;;;;16.42;5.40;;;18.10;93.30;;;;;;6230338;23;20043;-60
2022/05/21 09:26:26;;;;;;;11.77;5.47;;;18.10;95.00;;;;;;6232311;22;20000;-60
2022/05/21 09:28:51;;;;;;;15.70;5.10;;;18.00;94.10;;;;;;6233518;23;20348;-60
2022/05/21 09:31:23;;;;;;;11.35;4.93;;;18.20;94.30;;;;;;6229515;23;20004;-60
2022/05/21 09:33:48;;;;;;;15.88;4.57;;;18.30;93.90;;;;;;6232612;22;20008;-61
2022/05/21 09:36:18;;;;;;;10.88;4.43;;;18.40;93.30;;;;;;6230192;22;19996;-61
2022/05/21 09:38:53;;;;;;;17.20;5.85;;;18.50;94.40;;;;;;6233612;22;20711;-60
2022/05/21 09:41:26;;;;;;;11.50;3.90;;;18.20;93.80;;;;;;6231705;22;19996;-60
2022/05/21 09:47:11;;;;;;;15.90;4.55;;;17.80;94.80;;;;;;6232502;23;20058;-60
2022/05/21 09:49:39;;;;;;;17.65;4.20;;;17.90;94.10;;;;;;6228791;23;20408;-59
2022/05/21 09:52:06;;;;;;;16.75;3.95;;;18.30;94.10;;;;;;6227208;22;20027;-60
2022/05/21 09:54:38;;;;;;;11.23;4.30;;;19.70;92.50;;;;;;6232463;22;20004;-60
2022/05/21 09:57:03;;;;;;;12.77;4.05;;;20.10;90.00;;;;;;6233898;23;20659;-60
2022/05/21 09:59:30;;;;;;;13.20;4.68;;;19.90;90.30;;;;;;6230820;22;20000;-59
2022/05/21 10:02:14;;;;;;;13.75;4.15;;;21.30;83.10;;;;;;6232338;23;20016;-59
2022/05/21 10:04:43;;;;;;;11.95;3.97;;;21.50;82.30;;;;;;6230580;22;20003;-60
2022/05/21 10:10:58;;;;;;;15.43;4.43;;;20.90;86.40;;;;;;6233341;23;20221;-60
2022/05/21 10:12:52;;;;;;;18.67;4.97;;;21.90;79.40;;;;;;6233171;23;20030;-60
2022/05/21 10:15:19;;;;;;;12.23;4.10;;;22.20;78.20;;;;;;6230933;23;19997;-60
2022/05/21 10:17:59;;;;;;;16.25;4.50;;;23.40;69.00;;;;;;6234053;23;20011;-60
2022/05/21 10:20:43;;;;;;;10.75;3.90;;;21.90;74.00;;;;;;6231626;23;20009;-60
2022/05/21 10:23:33;;;;;;;13.17;4.50;;;21.30;77.20;;;;;;6233660;23;20054;-60
2022/05/21 10:26:13;;;;;;;11.13;4.35;;;20.70;80.40;;;;;;6233065;22;20019;-60
2022/05/21 10:28:45;;;;;;;11.82;4.00;;;20.40;82.70;;;;;;6191702;22;20340;-58
2022/05/21 10:31:29;;;;;;;12.75;3.97;;;19.90;84.50;;;;;;6230426;22;20109;-59
2022/05/21 10:34:33;;;;;;;12.32;3.95;;;19.60;87.80;;;;;;6230653;23;20004;-60
2022/05/21 10:37:17;;;;;;;13.82;4.35;;;18.90;90.60;;;;;;6232032;23;20008;-60
2022/05/21 10:40:07;;;;;;;13.43;4.20;;;19.60;90.70;;;;;;6233316;23;20023;-59
2022/05/21 10:43:01;;;;;;;10.98;4.70;;;21.10;90.20;;;;;;6231953;22;20050;-59
2022/05/21 10:45:33;;;;;;;15.27;4.30;;;22.70;71.50;;;;;;6201136;22;20142;-60
2022/05/21 10:48:26;;;;;;;12.77;4.93;;;22.70;70.50;;;;;;6231819;22;20000;-58
2022/05/21 10:51:05;;;;;;;16.05;4.53;;;22.70;69.90;;;;;;6227561;23;20114;-60
2022/05/21 10:53:58;;;;;;;32.65;18.23;;;23.80;68.50;;;;;;6229843;23;20011;-59
2022/05/21 10:56:44;;;;;;;14.10;3.78;;;24.00;71.50;;;;;;6231245;22;20000;-59
2022/05/21 10:59:19;;;;;;;11.85;3.53;;;23.60;63.50;;;;;;6231435;22;20012;-60
2022/05/21 11:01:44;;;;;;;11.05;5.25;;;23.30;66.10;;;;;;6234267;22;20356;-59
2022/05/21 11:04:28;;;;;;;9.57;3.67;;;22.90;64.10;;;;;;6232482;22;20071;-59
2022/05/21 11:07:17;;;;;;;8.65;3.42;;;22.50;64.60;;;;;;6232938;23;20004;-59
2022/05/21 11:09:53;;;;;;;9.60;3.75;;;23.40;64.40;;;;;;6230517;23;20023;-59
2022/05/21 11:12:24;;;;;;;12.20;4.05;;;23.60;63.50;;;;;;6233032;23;20046;-59
2022/05/21 11:14:55;;;;;;;8.70;3.72;;;23.20;65.30;;;;;;6230170;23;20054;-59
2022/05/21 11:17:32;;;;;;;9.15;3.58;;;22.70;63.80;;;;;;6233877;23;20011;-59
2022/05/21 11:20:02;;;;;;;7.93;3.97;;;22.80;66.10;;;;;;6231926;22;20272;-59
2022/05/21 11:22:40;;;;;;;8.65;3.53;;;22.30;67.50;;;;;;6234814;22;20007;-59
2022/05/21 11:25:31;;;;;;;12.13;3.90;;;21.40;69.90;;;;;;6234382;23;20336;-60
2022/05/21 11:28:16;;;;;;;8.93;3.67;;;21.30;72.80;;;;;;6162901;23;20004;-59
2022/05/21 11:30:41;;;;;;;5.35;2.65;;;20.50;71.40;;;;;;6230779;22;20004;-59
2022/05/21 11:39:06;;;;;;;13.32;4.20;;;19.80;80.80;;;;;;6090886;23;20390;-60
2022/05/21 11:42:00;;;;;;;9.45;3.47;;;20.00;85.10;;;;;;6201044;23;20069;-59
2022/05/21 11:44:58;;;;;;;14.05;3.95;;;19.30;84.30;;;;;;6233196;23;20001;-60
2022/05/21 11:47:26;;;;;;;11.70;4.03;;;19.50;88.10;;;;;;6233455;22;20015;-60
2022/05/21 11:49:57;;;;;;;13.25;3.55;;;19.60;86.40;;;;;;6232356;22;20061;-60
2022/05/21 11:52:29;;;;;;;11.85;4.07;;;19.70;82.70;;;;;;6231538;22;20004;-59
2022/05/21 11:54:55;;;;;;;11.27;4.10;;;19.70;79.80;;;;;;6230100;22;20115;-59
2022/05/21 11:57:37;;;;;;;11.35;4.05;;;19.70;84.60;;;;;;6233198;22;20491;-60
2022/05/21 12:00:17;;;;;;;10.13;4.10;;;20.30;82.50;;;;;;6230447;22;20499;-60
2022/05/21 12:02:56;;;;;;;10.00;3.78;;;21.10;76.80;;;;;;6229699;22;20300;-59
2022/05/21 12:08:16;;;;;;;10.68;3.80;;;21.90;68.60;;;;;;6234724;22;20004;-60
2022/05/21 12:11:10;;;;;;;9.00;3.70;;;22.00;67.40;;;;;;6232234;22;20012;-60
2022/05/21 12:13:35;;;;;;;11.07;3.80;;;21.90;71.60;;;;;;6233959;22;20678;-60
2022/05/21 12:16:16;;;;;;;9.43;3.88;;;21.90;70.20;;;;;;6231246;22;20011;-59
2022/05/21 12:18:48;;;;;;;8.82;4.00;;;21.30;67.80;;;;;;6233053;22;20085;-59
2022/05/21 12:21:30;;;;;;;11.60;3.80;;;21.00;68.30;;;;;;6229963;23;20019;-60
2022/05/21 12:23:58;;;;;;;13.02;4.38;;;21.10;69.60;;;;;;6233512;22;20000;-60
2022/05/21 12:26:34;;;;;;;6.55;3.15;;;21.20;72.20;;;;;;6232407;22;20004;-59
2022/05/21 12:29:06;;;;;;;13.43;3.30;;;20.90;73.50;;;;;;6165721;22;20048;-59
2022/05/21 12:31:37;;;;;;;7.28;3.08;;;21.10;71.10;;;;;;6229872;23;20015;-60
2022/05/21 12:34:02;;;;;;;10.57;3.00;;;21.20;69.20;;;;;;6234351;22;20014;-59
2022/05/21 12:36:50;;;;;;;12.13;3.80;;;21.40;68.60;;;;;;6231834;22;20083;-59
2022/05/21 12:39:16;;;;;;;7.78;3.58;;;20.60;72.70;;;;;;6231285;23;20072;-60
2022/05/21 12:41:46;;;;;;;9.52;3.40;;;21.30;75.60;;;;;;6232783;23;20436;-59
2022/05/21 12:44:32;;;;;;;10.10;3.58;;;21.70;72.20;;;;;;6234200;22;20011;-60
2022/05/21 12:46:58;;;;;;;15.13;4.13;;;21.60;68.30;;;;;;6232751;23;20437;-59
2022/05/21 12:49:24;;;;;;;10.05;3.40;;;22.40;66.70;;;;;;6230036;23;20019;-60
2022/05/21 12:51:49;;;;;;;7.93;3.70;;;21.80;69.10;;;;;;6231729;23;20008;-59
2022/05/21 12:54:23;;;;;;;10.95;4.25;;;21.40;68.80;;;;;;6228337;23;20004;-60
2022/05/21 12:56:48;;;;;;;8.70;4.13;;;21.50;71.20;;;;;;6234033;22;20720;-60
2022/05/21 12:59:29;;;;;;;10.50;3.85;;;21.80;71.20;;;;;;6229451;23;20051;-60
2022/05/21 13:02:15;;;;;;;7.22;3.72;;;21.20;72.30;;;;;;6236678;22;20031;-60
2022/05/21 13:04:45;;;;;;;12.18;3.83;;;20.90;72.20;;;;;;6233356;23;20011;-59
2022/05/21 13:07:23;;;;;;;14.43;4.22;;;20.60;75.10;;;;;;6236865;22;20392;-60
2022/05/21 13:09:52;;;;;;;6.30;3.20;;;20.40;76.20;;;;;;6233199;23;20015;-59
2022/05/21 13:12:17;;;;;;;10.70;3.80;;;20.60;72.80;;;;;;6236534;22;20000;-59
2022/05/21 13:14:43;;;;;;;10.60;3.25;;;20.90;69.90;;;;;;6233072;23;20015;-60
2022/05/21 13:17:32;;;;;;;9.63;3.50;;;21.70;71.00;;;;;;6234786;23;20011;-59
2022/05/21 13:20:09;;;;;;;8.00;3.40;;;21.60;68.50;;;;;;6233179;23;20004;-59
2022/05/21 13:22:42;;;;;;;11.88;3.53;;;21.40;69.70;;;;;;6237054;22;20008;-59